aviador You're here:

LFCK Decoded Metar

CASTRES in FRANCE
Report Time2018-02-21 05:00:00
UTC Time2018-02-21 05:08:23
Flight Rules vfr VFR
Wind300° at 06 kt
W.Decomp.*RWY 32: 5.6 kt HW 2.1 kt LCW
W.Rank300° ranks 2
Current wind is below 300° avg. (10.0)
Visibility9999 m
Phenomena:N/A
Clouds:N/A
Expected CloudBase > 1,200 ft AGL from Temp-Dew spread
CeilingNone
Temp04°C
Dew Point01°C (81% RH)
AAT0.0°C
QNH1012 hPa
Raw Report
METAR LFCK 210500Z AUTO 30006KT 260V340 CAVOK 04/01 Q1012=

Extra information for LFCK:More info

Metar Taf Metar & Taf Last 4 Metars F.Rules Stats Wind Profile Meteogram Temp Stats Airport Information Weather charts Add Link Nearby VenuesMetar ALERT Operation Metar Decoded Social comments